sensor_id;sensor_type;location;lat;lon;timestamp;pressure;altitude;pressure_sealevel;temperature;humidity
12694;BME280;6411;58.190;12.720;2022-10-28T00:01:20;100808.44;;;19.27;100.00
12694;BME280;6411;58.190;12.720;2022-10-28T00:03:57;100808.59;;;19.25;100.00
12694;BME280;6411;58.190;12.720;2022-10-28T00:06:29;100805.88;;;19.35;100.00
12694;BME280;6411;58.190;12.720;2022-10-28T00:08:55;100808.41;;;19.36;100.00
12694;BME280;6411;58.190;12.720;2022-10-28T00:11:27;100805.59;;;19.46;100.00
12694;BME280;6411;58.190;12.720;2022-10-28T00:13:56;100802.78;;;19.30;100.00
12694;BME280;6411;58.190;12.720;2022-10-28T00:16:24;100805.25;;;19.23;100.00
12694;BME280;6411;58.190;12.720;2022-10-28T00:18:50;100792.44;;;19.27;100.00
12694;BME280;6411;58.190;12.720;2022-10-28T00:21:21;100793.25;;;19.02;100.00
12694;BME280;6411;58.190;12.720;2022-10-28T00:23:47;100790.28;;;18.87;100.00
12694;BME280;6411;58.190;12.720;2022-10-28T00:26:16;100782.59;;;19.02;100.00
12694;BME280;6411;58.190;12.720;2022-10-28T00:28:48;100783.00;;;19.15;100.00
12694;BME280;6411;58.190;12.720;2022-10-28T00:31:15;100777.25;;;19.02;100.00
12694;BME280;6411;58.190;12.720;2022-10-28T00:33:41;100775.72;;;18.81;100.00
12694;BME280;6411;58.190;12.720;2022-10-28T00:38:33;100762.97;;;18.93;100.00
12694;BME280;6411;58.190;12.720;2022-10-28T00:40:58;100756.81;;;18.92;100.00
12694;BME280;6411;58.190;12.720;2022-10-28T00:43:48;100750.03;;;18.98;100.00
12694;BME280;6411;58.190;12.720;2022-10-28T00:49:25;100749.38;;;18.78;100.00
12694;BME280;6411;58.190;12.720;2022-10-28T00:51:58;100740.81;;;18.92;100.00
12694;BME280;6411;58.190;12.720;2022-10-28T00:54:25;100712.38;;;18.83;100.00
12694;BME280;6411;58.190;12.720;2022-10-28T00:56:55;100722.75;;;19.12;100.00
12694;BME280;6411;58.190;12.720;2022-10-28T00:59:25;100729.69;;;18.79;100.00
12694;BME280;6411;58.190;12.720;2022-10-28T01:01:51;100724.28;;;18.71;100.00
12694;BME280;6411;58.190;12.720;2022-10-28T01:04:17;100717.03;;;19.07;100.00
12694;BME280;6411;58.190;12.720;2022-10-28T01:06:45;100712.53;;;19.08;100.00
12694;BME280;6411;58.190;12.720;2022-10-28T01:09:11;100718.59;;;19.18;100.00
12694;BME280;6411;58.190;12.720;2022-10-28T01:12:01;100701.38;;;19.12;100.00
12694;BME280;6411;58.190;12.720;2022-10-28T01:32:14;100686.38;;;19.37;100.00
12694;BME280;6411;58.190;12.720;2022-10-28T01:34:50;100678.53;;;19.10;100.00
12694;BME280;6411;58.190;12.720;2022-10-28T01:37:30;100655.63;;;18.99;100.00
12694;BME280;6411;58.190;12.720;2022-10-28T01:40:05;100666.81;;;18.77;100.00
12694;BME280;6411;58.190;12.720;2022-10-28T01:42:38;100672.19;;;18.85;100.00
12694;BME280;6411;58.190;12.720;2022-10-28T01:45:17;100669.63;;;18.75;100.00
12694;BME280;6411;58.190;12.720;2022-10-28T01:48:00;100658.75;;;18.95;100.00
12694;BME280;6411;58.190;12.720;2022-10-28T01:50:50;100653.16;;;18.80;100.00
12694;BME280;6411;58.190;12.720;2022-10-28T01:53:22;100655.88;;;18.62;100.00
12694;BME280;6411;58.190;12.720;2022-10-28T01:55:51;100659.78;;;18.76;100.00
12694;BME280;6411;58.190;12.720;2022-10-28T01:58:21;100642.44;;;18.54;100.00
12694;BME280;6411;58.190;12.720;2022-10-28T02:00:48;100641.88;;;18.68;100.00
12694;BME280;6411;58.190;12.720;2022-10-28T02:03:15;100638.41;;;18.68;100.00
12694;BME280;6411;58.190;12.720;2022-10-28T02:05:50;100632.19;;;18.59;100.00
12694;BME280;6411;58.190;12.720;2022-10-28T02:11:11;100610.13;;;18.75;100.00
12694;BME280;6411;58.190;12.720;2022-10-28T02:13:54;100604.50;;;18.86;100.00
12694;BME280;6411;58.190;12.720;2022-10-28T02:19:58;100585.50;;;18.63;100.00
12694;BME280;6411;58.190;12.720;2022-10-28T02:22:17;100589.13;;;18.80;100.00
12694;BME280;6411;58.190;12.720;2022-10-28T02:30:43;100572.81;;;18.57;100.00
12694;BME280;6411;58.190;12.720;2022-10-28T02:33:15;100577.66;;;18.62;100.00
12694;BME280;6411;58.190;12.720;2022-10-28T02:35:53;100577.81;;;18.35;100.00
12694;BME280;6411;58.190;12.720;2022-10-28T02:38:25;100565.13;;;18.54;100.00
12694;BME280;6411;58.190;12.720;2022-10-28T02:40:56;100558.28;;;18.52;100.00
12694;BME280;6411;58.190;12.720;2022-10-28T02:43:24;100557.53;;;18.67;100.00
12694;BME280;6411;58.190;12.720;2022-10-28T02:45:55;100543.88;;;18.19;100.00
12694;BME280;6411;58.190;12.720;2022-10-28T02:50:57;100533.09;;;18.29;100.00
12694;BME280;6411;58.190;12.720;2022-10-28T02:53:34;100528.81;;;18.61;100.00
12694;BME280;6411;58.190;12.720;2022-10-28T02:56:03;100527.06;;;18.70;100.00
12694;BME280;6411;58.190;12.720;2022-10-28T02:58:37;100528.00;;;18.61;100.00
12694;BME280;6411;58.190;12.720;2022-10-28T03:01:04;100525.97;;;18.55;100.00
12694;BME280;6411;58.190;12.720;2022-10-28T03:03:30;100527.72;;;19.06;100.00
12694;BME280;6411;58.190;12.720;2022-10-28T03:05:56;100524.69;;;19.01;100.00
12694;BME280;6411;58.190;12.720;2022-10-28T03:08:21;100520.09;;;18.77;100.00
12694;BME280;6411;58.190;12.720;2022-10-28T03:10:49;100499.47;;;18.95;100.00
12694;BME280;6411;58.190;12.720;2022-10-28T03:13:15;100487.69;;;18.72;100.00
12694;BME280;6411;58.190;12.720;2022-10-28T03:15:41;100501.34;;;18.61;100.00
12694;BME280;6411;58.190;12.720;2022-10-28T03:18:06;100490.34;;;18.64;100.00
12694;BME280;6411;58.190;12.720;2022-10-28T03:20:32;100507.13;;;18.56;100.00
12694;BME280;6411;58.190;12.720;2022-10-28T03:22:57;100506.50;;;18.62;100.00
12694;BME280;6411;58.190;12.720;2022-10-28T03:25:23;100514.16;;;18.57;100.00
12694;BME280;6411;58.190;12.720;2022-10-28T03:27:48;100508.00;;;18.65;100.00
12694;BME280;6411;58.190;12.720;2022-10-28T03:30:14;100500.31;;;18.87;100.00
12694;BME280;6411;58.190;12.720;2022-10-28T03:32:40;100494.97;;;18.96;100.00
12694;BME280;6411;58.190;12.720;2022-10-28T03:35:07;100495.41;;;18.75;100.00
12694;BME280;6411;58.190;12.720;2022-10-28T03:37:32;100487.69;;;18.72;100.00
12694;BME280;6411;58.190;12.720;2022-10-28T03:39:58;100487.50;;;18.65;100.00
12694;BME280;6411;58.190;12.720;2022-10-28T03:42:26;100488.06;;;19.19;100.00
12694;BME280;6411;58.190;12.720;2022-10-28T03:44:52;100493.94;;;19.30;100.00
12694;BME280;6411;58.190;12.720;2022-10-28T03:47:18;100489.78;;;19.36;100.00
12694;BME280;6411;58.190;12.720;2022-10-28T03:49:43;100479.03;;;19.12;100.00
12694;BME280;6411;58.190;12.720;2022-10-28T03:52:08;100491.41;;;19.29;100.00
12694;BME280;6411;58.190;12.720;2022-10-28T03:54:34;100485.28;;;19.44;100.00
12694;BME280;6411;58.190;12.720;2022-10-28T03:56:59;100480.22;;;19.25;100.00
12694;BME280;6411;58.190;12.720;2022-10-28T03:59:25;100478.78;;;19.31;100.00
12694;BME280;6411;58.190;12.720;2022-10-28T04:01:50;100469.63;;;19.49;100.00
12694;BME280;6411;58.190;12.720;2022-10-28T04:04:16;100473.47;;;19.87;100.00
12694;BME280;6411;58.190;12.720;2022-10-28T04:06:41;100475.47;;;19.53;100.00
12694;BME280;6411;58.190;12.720;2022-10-28T04:09:07;100475.47;;;19.77;100.00
12694;BME280;6411;58.190;12.720;2022-10-28T04:11:32;100476.13;;;19.95;100.00
12694;BME280;6411;58.190;12.720;2022-10-28T04:13:58;100467.47;;;19.85;100.00
12694;BME280;6411;58.190;12.720;2022-10-28T04:16:23;100467.81;;;19.66;100.00
12694;BME280;6411;58.190;12.720;2022-10-28T04:18:49;100461.75;;;19.56;100.00
12694;BME280;6411;58.190;12.720;2022-10-28T04:21:14;100458.44;;;19.46;100.00
12694;BME280;6411;58.190;12.720;2022-10-28T04:23:40;100461.97;;;19.62;100.00
12694;BME280;6411;58.190;12.720;2022-10-28T04:26:05;100448.59;;;19.78;100.00
12694;BME280;6411;58.190;12.720;2022-10-28T04:28:31;100454.75;;;19.63;100.00
12694;BME280;6411;58.190;12.720;2022-10-28T04:30:57;100445.09;;;19.54;100.00
12694;BME280;6411;58.190;12.720;2022-10-28T04:33:22;100439.75;;;19.62;100.00
12694;BME280;6411;58.190;12.720;2022-10-28T04:35:48;100434.41;;;19.54;100.00
12694;BME280;6411;58.190;12.720;2022-10-28T04:38:13;100431.56;;;19.63;100.00
12694;BME280;6411;58.190;12.720;2022-10-28T04:40:39;100423.88;;;19.68;100.00
12694;BME280;6411;58.190;12.720;2022-10-28T04:43:05;100427.72;;;19.90;100.00
12694;BME280;6411;58.190;12.720;2022-10-28T04:45:31;100425.69;;;19.84;100.00
12694;BME280;6411;58.190;12.720;2022-10-28T04:48:00;100422.56;;;19.48;100.00
12694;BME280;6411;58.190;12.720;2022-10-28T04:50:26;100414.53;;;19.64;100.00
12694;BME280;6411;58.190;12.720;2022-10-28T04:52:51;100414.88;;;19.61;100.00
12694;BME280;6411;58.190;12.720;2022-10-28T04:55:18;100414.00;;;19.77;100.00
12694;BME280;6411;58.190;12.720;2022-10-28T04:57:52;100414.38;;;19.50;100.00
12694;BME280;6411;58.190;12.720;2022-10-28T05:00:17;100404.50;;;19.90;100.00
12694;BME280;6411;58.190;12.720;2022-10-28T05:02:43;100402.13;;;20.03;100.00
12694;BME280;6411;58.190;12.720;2022-10-28T05:05:08;100399.34;;;19.73;100.00
12694;BME280;6411;58.190;12.720;2022-10-28T05:07:34;100393.66;;;19.60;100.00
12694;BME280;6411;58.190;12.720;2022-10-28T05:09:59;100394.16;;;19.63;100.00
12694;BME280;6411;58.190;12.720;2022-10-28T05:12:25;100397.66;;;19.80;100.00
12694;BME280;6411;58.190;12.720;2022-10-28T05:14:50;100392.00;;;19.75;100.00
12694;BME280;6411;58.190;12.720;2022-10-28T05:17:16;100383.63;;;19.86;100.00
12694;BME280;6411;58.190;12.720;2022-10-28T05:19:41;100394.19;;;19.31;100.00
12694;BME280;6411;58.190;12.720;2022-10-28T05:22:09;100390.78;;;19.13;100.00
12694;BME280;6411;58.190;12.720;2022-10-28T05:24:35;100384.13;;;19.25;100.00
12694;BME280;6411;58.190;12.720;2022-10-28T05:27:00;100382.28;;;19.26;100.00
12694;BME280;6411;58.190;12.720;2022-10-28T05:29:26;100381.59;;;19.08;100.00
12694;BME280;6411;58.190;12.720;2022-10-28T05:31:51;100389.59;;;19.16;100.00
12694;BME280;6411;58.190;12.720;2022-10-28T05:34:17;100382.94;;;19.20;100.00
12694;BME280;6411;58.190;12.720;2022-10-28T05:36:42;100381.09;;;19.28;100.00
12694;BME280;6411;58.190;12.720;2022-10-28T05:39:08;100384.66;;;19.37;100.00
12694;BME280;6411;58.190;12.720;2022-10-28T05:41:33;100376.31;;;19.48;100.00
12694;BME280;6411;58.190;12.720;2022-10-28T05:43:59;100363.25;;;19.13;100.00
12694;BME280;6411;58.190;12.720;2022-10-28T05:46:25;100378.94;;;19.24;100.00
12694;BME280;6411;58.190;12.720;2022-10-28T05:48:52;100385.81;;;19.42;100.00
12694;BME280;6411;58.190;12.720;2022-10-28T05:51:17;100390.81;;;19.29;100.00
12694;BME280;6411;58.190;12.720;2022-10-28T05:53:43;100381.75;;;19.14;100.00
12694;BME280;6411;58.190;12.720;2022-10-28T05:56:09;100381.75;;;18.98;100.00
12694;BME280;6411;58.190;12.720;2022-10-28T05:58:34;100390.50;;;19.56;100.00
12694;BME280;6411;58.190;12.720;2022-10-28T06:01:05;100388.00;;;19.31;100.00
12694;BME280;6411;58.190;12.720;2022-10-28T06:03:36;100383.50;;;19.31;100.00
12694;BME280;6411;58.190;12.720;2022-10-28T06:06:02;100394.69;;;19.35;100.00
12694;BME280;6411;58.190;12.720;2022-10-28T06:08:27;100394.28;;;19.22;100.00
12694;BME280;6411;58.190;12.720;2022-10-28T06:10:53;100395.13;;;19.22;100.00
12694;BME280;6411;58.190;12.720;2022-10-28T06:13:20;100380.66;;;19.41;100.00
12694;BME280;6411;58.190;12.720;2022-10-28T06:15:56;100387.19;;;19.38;100.00
12694;BME280;6411;58.190;12.720;2022-10-28T06:18:22;100384.31;;;19.32;100.00
12694;BME280;6411;58.190;12.720;2022-10-28T06:20:56;100386.50;;;19.36;100.00
12694;BME280;6411;58.190;12.720;2022-10-28T06:23:23;100392.69;;;19.45;100.00
12694;BME280;6411;58.190;12.720;2022-10-28T06:25:48;100397.16;;;19.68;100.00
12694;BME280;6411;58.190;12.720;2022-10-28T06:28:14;100384.81;;;19.35;100.00
12694;BME280;6411;58.190;12.720;2022-10-28T06:30:40;100383.13;;;19.18;100.00
12694;BME280;6411;58.190;12.720;2022-10-28T06:33:06;100389.09;;;19.04;100.00
12694;BME280;6411;58.190;12.720;2022-10-28T06:35:31;100380.50;;;19.50;100.00
12694;BME280;6411;58.190;12.720;2022-10-28T06:37:57;100388.16;;;19.69;100.00
12694;BME280;6411;58.190;12.720;2022-10-28T06:40:23;100392.00;;;19.59;100.00
12694;BME280;6411;58.190;12.720;2022-10-28T06:43:06;100389.31;;;19.67;100.00
12694;BME280;6411;58.190;12.720;2022-10-28T06:45:33;100395.00;;;19.32;100.00
12694;BME280;6411;58.190;12.720;2022-10-28T06:48:01;100400.84;;;19.67;100.00
12694;BME280;6411;58.190;12.720;2022-10-28T06:50:28;100402.50;;;19.68;100.00
12694;BME280;6411;58.190;12.720;2022-10-28T06:52:55;100411.81;;;19.96;100.00
12694;BME280;6411;58.190;12.720;2022-10-28T06:55:22;100413.50;;;19.89;100.00
12694;BME280;6411;58.190;12.720;2022-10-28T06:57:47;100415.00;;;19.92;100.00
12694;BME280;6411;58.190;12.720;2022-10-28T07:00:13;100407.47;;;20.03;100.00
12694;BME280;6411;58.190;12.720;2022-10-28T07:02:39;100407.50;;;19.95;100.00
12694;BME280;6411;58.190;12.720;2022-10-28T07:05:05;100409.38;;;19.55;100.00
12694;BME280;6411;58.190;12.720;2022-10-28T07:07:31;100407.16;;;19.66;100.00
12694;BME280;6411;58.190;12.720;2022-10-28T07:09:56;100405.69;;;19.72;100.00
12694;BME280;6411;58.190;12.720;2022-10-28T07:12:22;100413.00;;;19.86;100.00
12694;BME280;6411;58.190;12.720;2022-10-28T07:14:47;100406.69;;;19.55;100.00
12694;BME280;6411;58.190;12.720;2022-10-28T07:17:13;100408.53;;;19.46;100.00
12694;BME280;6411;58.190;12.720;2022-10-28T07:19:38;100406.84;;;19.61;100.00
12694;BME280;6411;58.190;12.720;2022-10-28T07:22:04;100363.94;;;19.63;100.00
12694;BME280;6411;58.190;12.720;2022-10-28T07:24:29;100418.53;;;19.60;100.00
12694;BME280;6411;58.190;12.720;2022-10-28T07:27:00;100428.91;;;19.55;100.00
12694;BME280;6411;58.190;12.720;2022-10-28T07:29:25;100424.38;;;19.64;100.00
12694;BME280;6411;58.190;12.720;2022-10-28T07:31:53;100431.41;;;19.73;100.00
12694;BME280;6411;58.190;12.720;2022-10-28T07:34:18;100425.06;;;19.50;100.00
12694;BME280;6411;58.190;12.720;2022-10-28T07:36:49;100439.06;;;19.60;100.00
12694;BME280;6411;58.190;12.720;2022-10-28T07:39:15;100442.94;;;19.57;100.00
12694;BME280;6411;58.190;12.720;2022-10-28T07:41:40;100441.25;;;19.56;100.00
12694;BME280;6411;58.190;12.720;2022-10-28T07:44:06;100427.88;;;19.40;100.00
12694;BME280;6411;58.190;12.720;2022-10-28T07:46:32;100431.56;;;19.31;100.00
12694;BME280;6411;58.190;12.720;2022-10-28T07:48:58;100451.53;;;19.27;100.00
12694;BME280;6411;58.190;12.720;2022-10-28T07:51:24;100442.34;;;19.22;100.00
12694;BME280;6411;58.190;12.720;2022-10-28T07:53:49;100442.94;;;18.91;100.00
12694;BME280;6411;58.190;12.720;2022-10-28T07:56:15;100447.41;;;19.41;100.00
12694;BME280;6411;58.190;12.720;2022-10-28T07:58:42;100449.97;;;19.01;100.00
12694;BME280;6411;58.190;12.720;2022-10-28T08:01:11;100442.59;;;19.52;100.00
12694;BME280;6411;58.190;12.720;2022-10-28T08:03:37;100450.97;;;19.00;100.00
12694;BME280;6411;58.190;12.720;2022-10-28T08:06:11;100444.91;;;18.81;100.00
12694;BME280;6411;58.190;12.720;2022-10-28T08:08:38;100445.69;;;19.24;100.00
12694;BME280;6411;58.190;12.720;2022-10-28T08:11:11;100453.25;;;18.86;100.00
12694;BME280;6411;58.190;12.720;2022-10-28T08:13:37;100451.66;;;19.02;100.00
12694;BME280;6411;58.190;12.720;2022-10-28T08:16:03;100447.31;;;19.09;100.00
12694;BME280;6411;58.190;12.720;2022-10-28T08:18:28;100449.84;;;19.26;100.00
12694;BME280;6411;58.190;12.720;2022-10-28T08:20:54;100449.00;;;19.02;100.00
12694;BME280;6411;58.190;12.720;2022-10-28T08:23:22;100436.38;;;19.44;100.00
12694;BME280;6411;58.190;12.720;2022-10-28T08:25:49;100448.09;;;19.59;100.00
12694;BME280;6411;58.190;12.720;2022-10-28T08:28:15;100450.09;;;19.33;100.00
12694;BME280;6411;58.190;12.720;2022-10-28T08:30:40;100446.72;;;19.39;100.00
12694;BME280;6411;58.190;12.720;2022-10-28T08:33:06;100459.78;;;19.66;100.00
12694;BME280;6411;58.190;12.720;2022-10-28T08:35:31;100461.03;;;19.30;100.00
12694;BME280;6411;58.190;12.720;2022-10-28T08:37:57;100466.13;;;19.97;100.00
12694;BME280;6411;58.190;12.720;2022-10-28T08:40:31;100467.94;;;19.80;100.00
12694;BME280;6411;58.190;12.720;2022-10-28T08:43:12;100457.09;;;19.50;100.00
12694;BME280;6411;58.190;12.720;2022-10-28T08:45:55;100465.78;;;19.52;100.00
12694;BME280;6411;58.190;12.720;2022-10-28T08:48:30;100463.31;;;19.09;100.00
12694;BME280;6411;58.190;12.720;2022-10-28T08:51:03;100466.50;;;19.04;100.00
12694;BME280;6411;58.190;12.720;2022-10-28T08:53:38;100470.88;;;19.21;100.00
12694;BME280;6411;58.190;12.720;2022-10-28T08:56:15;100468.00;;;19.07;100.00
12694;BME280;6411;58.190;12.720;2022-10-28T08:58:44;100445.75;;;19.48;100.00
12694;BME280;6411;58.190;12.720;2022-10-28T09:01:25;100473.13;;;18.92;100.00
12694;BME280;6411;58.190;12.720;2022-10-28T09:03:57;100476.25;;;19.29;100.00
12694;BME280;6411;58.190;12.720;2022-10-28T09:06:26;100472.03;;;19.27;100.00
12694;BME280;6411;58.190;12.720;2022-10-28T09:08:54;100469.28;;;19.36;100.00
12694;BME280;6411;58.190;12.720;2022-10-28T09:17:20;100469.97;;;18.97;100.00
12694;BME280;6411;58.190;12.720;2022-10-28T09:20:20;100478.34;;;19.18;100.00
12694;BME280;6411;58.190;12.720;2022-10-28T09:23:13;100479.47;;;18.57;100.00
12694;BME280;6411;58.190;12.720;2022-10-28T09:31:24;100465.75;;;19.36;100.00
12694;BME280;6411;58.190;12.720;2022-10-28T09:36:54;100456.19;;;19.17;100.00
12694;BME280;6411;58.190;12.720;2022-10-28T09:39:28;100472.44;;;19.48;100.00
12694;BME280;6411;58.190;12.720;2022-10-28T09:41:58;100471.69;;;19.14;100.00
12694;BME280;6411;58.190;12.720;2022-10-28T09:44:43;100479.47;;;18.91;100.00
12694;BME280;6411;58.190;12.720;2022-10-28T09:47:21;100481.88;;;19.26;100.00
12694;BME280;6411;58.190;12.720;2022-10-28T09:49:49;100475.28;;;18.97;100.00
12694;BME280;6411;58.190;12.720;2022-10-28T09:52:42;100482.66;;;18.95;100.00
12694;BME280;6411;58.190;12.720;2022-10-28T09:55:14;100482.28;;;18.89;100.00
12694;BME280;6411;58.190;12.720;2022-10-28T09:57:42;100477.69;;;19.16;100.00
12694;BME280;6411;58.190;12.720;2022-10-28T10:00:11;100489.97;;;18.92;100.00
12694;BME280;6411;58.190;12.720;2022-10-28T10:02:37;100469.53;;;18.67;100.00
12694;BME280;6411;58.190;12.720;2022-10-28T10:05:13;100489.81;;;18.60;100.00
12694;BME280;6411;58.190;12.720;2022-10-28T10:07:47;100496.44;;;18.48;100.00
12694;BME280;6411;58.190;12.720;2022-10-28T10:10:27;100488.94;;;18.85;100.00
12694;BME280;6411;58.190;12.720;2022-10-28T10:12:58;100508.94;;;18.81;100.00
12694;BME280;6411;58.190;12.720;2022-10-28T10:15:29;100505.44;;;18.47;100.00
12694;BME280;6411;58.190;12.720;2022-10-28T10:17:59;100499.28;;;18.88;100.00
12694;BME280;6411;58.190;12.720;2022-10-28T10:20:26;100510.81;;;18.89;100.00
12694;BME280;6411;58.190;12.720;2022-10-28T10:22:51;100508.56;;;18.43;100.00
12694;BME280;6411;58.190;12.720;2022-10-28T10:28:14;100506.84;;;18.59;100.00
12694;BME280;6411;58.190;12.720;2022-10-28T10:31:01;100503.81;;;18.11;100.00
12694;BME280;6411;58.190;12.720;2022-10-28T10:33:32;100505.06;;;18.25;100.00
12694;BME280;6411;58.190;12.720;2022-10-28T10:36:04;100507.16;;;18.39;100.00
12694;BME280;6411;58.190;12.720;2022-10-28T10:38:38;100510.16;;;18.36;100.00
12694;BME280;6411;58.190;12.720;2022-10-28T10:41:10;100502.81;;;18.55;100.00
12694;BME280;6411;58.190;12.720;2022-10-28T10:43:36;100509.28;;;18.86;100.00
12694;BME280;6411;58.190;12.720;2022-10-28T10:46:14;100502.09;;;18.45;100.00
12694;BME280;6411;58.190;12.720;2022-10-28T10:48:41;100498.50;;;18.62;100.00
12694;BME280;6411;58.190;12.720;2022-10-28T10:51:14;100481.47;;;18.97;100.00
12694;BME280;6411;58.190;12.720;2022-10-28T10:53:46;100476.84;;;18.65;100.00
12694;BME280;6411;58.190;12.720;2022-10-28T10:56:22;100487.84;;;18.62;100.00
12694;BME280;6411;58.190;12.720;2022-10-28T10:58:50;100501.13;;;18.88;100.00
12694;BME280;6411;58.190;12.720;2022-10-28T11:01:22;100508.25;;;18.79;100.00
12694;BME280;6411;58.190;12.720;2022-10-28T11:03:56;100486.63;;;18.90;100.00
12694;BME280;6411;58.190;12.720;2022-10-28T11:06:26;100508.97;;;18.56;100.00
12694;BME280;6411;58.190;12.720;2022-10-28T11:08:58;100512.53;;;18.64;100.00
12694;BME280;6411;58.190;12.720;2022-10-28T11:11:33;100496.59;;;18.80;100.00
12694;BME280;6411;58.190;12.720;2022-10-28T11:14:19;100499.66;;;18.60;100.00
12694;BME280;6411;58.190;12.720;2022-10-28T11:16:59;100496.19;;;18.67;100.00
12694;BME280;6411;58.190;12.720;2022-10-28T11:19:33;100497.44;;;18.47;100.00
12694;BME280;6411;58.190;12.720;2022-10-28T11:30:15;100493.59;;;18.24;100.00
12694;BME280;6411;58.190;12.720;2022-10-28T11:43:21;100492.22;;;18.71;100.00
12694;BME280;6411;58.190;12.720;2022-10-28T11:46:07;100486.72;;;18.73;100.00
12694;BME280;6411;58.190;12.720;2022-10-28T11:51:59;100477.53;;;18.75;100.00
12694;BME280;6411;58.190;12.720;2022-10-28T11:57:23;100476.72;;;18.75;100.00
12694;BME280;6411;58.190;12.720;2022-10-28T12:03:02;100483.66;;;18.34;100.00
12694;BME280;6411;58.190;12.720;2022-10-28T12:11:10;100482.84;;;18.59;100.00
12694;BME280;6411;58.190;12.720;2022-10-28T12:14:05;100481.75;;;18.27;100.00
12694;BME280;6411;58.190;12.720;2022-10-28T12:16:45;100477.94;;;18.47;100.00
12694;BME280;6411;58.190;12.720;2022-10-28T12:19:20;100461.03;;;19.30;100.00
12694;BME280;6411;58.190;12.720;2022-10-28T12:21:57;100473.13;;;18.50;100.00
12694;BME280;6411;58.190;12.720;2022-10-28T12:24:27;100468.41;;;18.78;100.00
12694;BME280;6411;58.190;12.720;2022-10-28T12:26:59;100464.31;;;19.00;100.00
12694;BME280;6411;58.190;12.720;2022-10-28T12:29:30;100464.03;;;19.19;100.00
12694;BME280;6411;58.190;12.720;2022-10-28T12:34:28;100447.75;;;19.46;100.00
12694;BME280;6411;58.190;12.720;2022-10-28T12:37:05;100454.09;;;19.77;100.00
12694;BME280;6411;58.190;12.720;2022-10-28T12:39:40;100453.59;;;19.49;100.00
12694;BME280;6411;58.190;12.720;2022-10-28T12:42:34;100454.44;;;19.58;100.00
12694;BME280;6411;58.190;12.720;2022-10-28T12:45:04;100449.41;;;20.03;100.00
12694;BME280;6411;58.190;12.720;2022-10-28T12:47:43;100442.44;;;19.54;100.00
12694;BME280;6411;58.190;12.720;2022-10-28T12:53:23;100454.06;;;18.79;100.00
12694;BME280;6411;58.190;12.720;2022-10-28T12:56:13;100436.31;;;18.03;100.00
12694;BME280;6411;58.190;12.720;2022-10-28T13:01:31;100460.75;;;18.24;100.00
12694;BME280;6411;58.190;12.720;2022-10-28T13:03:59;100467.97;;;18.31;100.00
12694;BME280;6411;58.190;12.720;2022-10-28T13:09:29;100460.91;;;18.22;100.00
12694;BME280;6411;58.190;12.720;2022-10-28T13:12:33;100462.63;;;18.06;100.00
12694;BME280;6411;58.190;12.720;2022-10-28T13:23:22;100468.28;;;18.03;100.00
12694;BME280;6411;58.190;12.720;2022-10-28T13:26:42;100464.16;;;17.83;100.00
12694;BME280;6411;58.190;12.720;2022-10-28T13:28:45;100461.09;;;18.21;100.00
12694;BME280;6411;58.190;12.720;2022-10-28T13:31:12;100467.09;;;18.23;100.00
12694;BME280;6411;58.190;12.720;2022-10-28T13:33:56;100462.19;;;18.69;100.00
12694;BME280;6411;58.190;12.720;2022-10-28T13:36:29;100465.75;;;18.27;100.00
12694;BME280;6411;58.190;12.720;2022-10-28T13:38:59;100462.09;;;18.02;100.00
12694;BME280;6411;58.190;12.720;2022-10-28T13:41:37;100462.94;;;18.28;100.00
12694;BME280;6411;58.190;12.720;2022-10-28T13:47:03;100460.72;;;18.41;100.00
12694;BME280;6411;58.190;12.720;2022-10-28T13:49:31;100462.38;;;18.17;100.00
12694;BME280;6411;58.190;12.720;2022-10-28T13:57:29;100460.09;;;19.31;100.00
12694;BME280;6411;58.190;12.720;2022-10-28T14:02:56;100436.09;;;18.89;100.00
12694;BME280;6411;58.190;12.720;2022-10-28T14:07:59;100454.72;;;18.81;100.00
12694;BME280;6411;58.190;12.720;2022-10-28T14:10:27;100462.22;;;18.18;100.00
12694;BME280;6411;58.190;12.720;2022-10-28T14:13:04;100454.13;;;18.28;100.00
12694;BME280;6411;58.190;12.720;2022-10-28T14:15:34;100446.38;;;18.76;100.00
12694;BME280;6411;58.190;12.720;2022-10-28T14:20:34;100456.81;;;18.61;100.00
12694;BME280;6411;58.190;12.720;2022-10-28T14:52:28;100438.16;;;18.61;100.00
12694;BME280;6411;58.190;12.720;2022-10-28T14:54:57;100427.84;;;18.33;100.00
12694;BME280;6411;58.190;12.720;2022-10-28T14:57:29;100431.53;;;17.89;100.00
12694;BME280;6411;58.190;12.720;2022-10-28T14:59:55;100433.63;;;18.03;100.00
12694;BME280;6411;58.190;12.720;2022-10-28T15:02:24;100431.25;;;17.74;100.00
12694;BME280;6411;58.190;12.720;2022-10-28T15:07:28;100431.34;;;18.33;100.00
12694;BME280;6411;58.190;12.720;2022-10-28T15:09:54;100422.66;;;18.31;100.00
12694;BME280;6411;58.190;12.720;2022-10-28T15:12:22;100411.22;;;18.13;100.00
12694;BME280;6411;58.190;12.720;2022-10-28T15:14:52;100413.47;;;18.26;100.00
12694;BME280;6411;58.190;12.720;2022-10-28T15:17:27;100413.84;;;18.05;100.00
12694;BME280;6411;58.190;12.720;2022-10-28T15:19:56;100414.66;;;18.31;100.00
12694;BME280;6411;58.190;12.720;2022-10-28T15:22:24;100415.66;;;18.64;100.00
12694;BME280;6411;58.190;12.720;2022-10-28T15:25:03;100417.03;;;18.68;100.00
12694;BME280;6411;58.190;12.720;2022-10-28T15:27:35;100410.06;;;18.83;100.00
12694;BME280;6411;58.190;12.720;2022-10-28T15:32:51;100401.19;;;18.66;100.00
12694;BME280;6411;58.190;12.720;2022-10-28T15:37:58;100413.47;;;17.74;100.00